Allen Jay, North Carolina
Current Conditions -  °F | °C
As of 10:54 AM on Tuesday 21 Oct 2014 (Local Time) from KGSO Reporting Station
Few Clouds Few Clouds  
Wind Chill: 66°   Ceiling: Unl
Heat Index: 66°   Visibility: 10mi
Dew Point: 49°   Wind: 6mph
Humidity: 54%   Direction: NA
Pressure: 29.93"   Gusts: NA
Location:  35.9136°N, 79.9465°W
Report Text: KGSO 211454Z VRB05KT 10SM FEW100 19/09 A2993 RMK AO2 SLP130 T01890094 50000
Loading
Personal Weather Stations






























Interactive Weather Map
Tropical Storm Tracking
New forecast layout! Learn more

10-Day Weather Forecast

Advertisements
Track Severe Weather on mobile